sensor_id;sensor_type;location;lat;lon;timestamp;P1;durP1;ratioP1;P2;durP2;ratioP2
63346;SDS011;49472;49.880;8.650;2024-01-16T00:00:25;14.67;;;13.30;;
63346;SDS011;49472;49.880;8.650;2024-01-16T00:02:50;19.23;;;17.30;;
63346;SDS011;49472;49.880;8.650;2024-01-16T00:05:16;16.73;;;14.20;;
63346;SDS011;49472;49.880;8.650;2024-01-16T00:07:41;16.33;;;13.90;;
63346;SDS011;49472;49.880;8.650;2024-01-16T00:10:07;19.63;;;15.00;;
63346;SDS011;49472;49.880;8.650;2024-01-16T00:12:32;15.57;;;14.00;;
63346;SDS011;49472;49.880;8.650;2024-01-16T00:14:57;15.63;;;13.87;;
63346;SDS011;49472;49.880;8.650;2024-01-16T00:17:22;15.17;;;13.70;;
63346;SDS011;49472;49.880;8.650;2024-01-16T00:19:48;15.87;;;14.47;;
63346;SDS011;49472;49.880;8.650;2024-01-16T00:22:13;15.80;;;14.33;;
63346;SDS011;49472;49.880;8.650;2024-01-16T00:24:38;15.73;;;14.17;;
63346;SDS011;49472;49.880;8.650;2024-01-16T00:27:03;15.13;;;13.83;;
63346;SDS011;49472;49.880;8.650;2024-01-16T00:29:29;15.97;;;14.50;;
63346;SDS011;49472;49.880;8.650;2024-01-16T00:31:55;16.10;;;14.40;;
63346;SDS011;49472;49.880;8.650;2024-01-16T00:34:20;15.00;;;13.50;;
63346;SDS011;49472;49.880;8.650;2024-01-16T00:36:45;14.00;;;13.10;;
63346;SDS011;49472;49.880;8.650;2024-01-16T00:39:11;16.50;;;14.80;;
63346;SDS011;49472;49.880;8.650;2024-01-16T00:41:36;16.33;;;14.83;;
63346;SDS011;49472;49.880;8.650;2024-01-16T00:44:02;16.50;;;15.10;;
63346;SDS011;49472;49.880;8.650;2024-01-16T00:46:28;16.30;;;14.60;;
63346;SDS011;49472;49.880;8.650;2024-01-16T00:48:53;16.30;;;14.80;;
63346;SDS011;49472;49.880;8.650;2024-01-16T00:51:18;15.27;;;13.83;;
63346;SDS011;49472;49.880;8.650;2024-01-16T00:53:43;17.40;;;15.70;;
63346;SDS011;49472;49.880;8.650;2024-01-16T00:56:09;15.83;;;14.30;;
63346;SDS011;49472;49.880;8.650;2024-01-16T00:58:34;15.13;;;13.93;;
63346;SDS011;49472;49.880;8.650;2024-01-16T01:00:59;15.60;;;14.07;;
63346;SDS011;49472;49.880;8.650;2024-01-16T01:03:24;15.97;;;14.37;;
63346;SDS011;49472;49.880;8.650;2024-01-16T01:05:50;16.47;;;14.90;;
63346;SDS011;49472;49.880;8.650;2024-01-16T01:08:15;15.97;;;14.30;;
63346;SDS011;49472;49.880;8.650;2024-01-16T01:10:40;16.33;;;14.87;;
63346;SDS011;49472;49.880;8.650;2024-01-16T01:13:05;15.63;;;14.27;;
63346;SDS011;49472;49.880;8.650;2024-01-16T01:15:30;17.60;;;15.10;;
63346;SDS011;49472;49.880;8.650;2024-01-16T01:17:56;22.20;;;15.10;;
63346;SDS011;49472;49.880;8.650;2024-01-16T01:20:21;21.20;;;15.30;;
63346;SDS011;49472;49.880;8.650;2024-01-16T01:22:46;15.90;;;14.30;;
63346;SDS011;49472;49.880;8.650;2024-01-16T01:25:12;16.47;;;14.50;;
63346;SDS011;49472;49.880;8.650;2024-01-16T01:27:38;15.30;;;13.97;;
63346;SDS011;49472;49.880;8.650;2024-01-16T01:30:04;15.80;;;14.63;;
63346;SDS011;49472;49.880;8.650;2024-01-16T01:32:29;17.73;;;15.20;;
63346;SDS011;49472;49.880;8.650;2024-01-16T01:34:54;18.40;;;14.50;;
63346;SDS011;49472;49.880;8.650;2024-01-16T01:37:20;15.67;;;14.37;;
63346;SDS011;49472;49.880;8.650;2024-01-16T01:39:45;15.77;;;14.27;;
63346;SDS011;49472;49.880;8.650;2024-01-16T01:42:10;15.37;;;14.03;;
63346;SDS011;49472;49.880;8.650;2024-01-16T01:44:35;18.03;;;16.00;;
63346;SDS011;49472;49.880;8.650;2024-01-16T01:47:01;27.70;;;16.30;;
63346;SDS011;49472;49.880;8.650;2024-01-16T01:49:26;16.67;;;14.97;;
63346;SDS011;49472;49.880;8.650;2024-01-16T01:51:52;17.40;;;15.90;;
63346;SDS011;49472;49.880;8.650;2024-01-16T01:54:17;15.33;;;14.23;;
63346;SDS011;49472;49.880;8.650;2024-01-16T01:56:44;18.93;;;15.10;;
63346;SDS011;49472;49.880;8.650;2024-01-16T01:59:09;16.17;;;14.77;;
63346;SDS011;49472;49.880;8.650;2024-01-16T02:01:35;16.57;;;14.93;;
63346;SDS011;49472;49.880;8.650;2024-01-16T02:04:00;16.30;;;14.87;;
63346;SDS011;49472;49.880;8.650;2024-01-16T02:06:26;16.80;;;14.53;;
63346;SDS011;49472;49.880;8.650;2024-01-16T02:08:51;18.30;;;16.50;;
63346;SDS011;49472;49.880;8.650;2024-01-16T02:11:16;20.70;;;14.43;;
63346;SDS011;49472;49.880;8.650;2024-01-16T02:13:42;15.60;;;14.30;;
63346;SDS011;49472;49.880;8.650;2024-01-16T02:16:17;24.27;;;14.40;;
63346;SDS011;49472;49.880;8.650;2024-01-16T02:18:42;16.10;;;14.70;;
63346;SDS011;49472;49.880;8.650;2024-01-16T02:21:07;20.10;;;14.97;;
63346;SDS011;49472;49.880;8.650;2024-01-16T02:23:32;20.70;;;15.40;;
63346;SDS011;49472;49.880;8.650;2024-01-16T02:25:58;15.43;;;13.80;;
63346;SDS011;49472;49.880;8.650;2024-01-16T02:28:23;16.73;;;14.90;;
63346;SDS011;49472;49.880;8.650;2024-01-16T02:30:48;16.70;;;15.20;;
63346;SDS011;49472;49.880;8.650;2024-01-16T02:33:14;16.67;;;15.17;;
63346;SDS011;49472;49.880;8.650;2024-01-16T02:35:39;16.40;;;15.00;;
63346;SDS011;49472;49.880;8.650;2024-01-16T02:38:04;15.83;;;13.97;;
63346;SDS011;49472;49.880;8.650;2024-01-16T02:40:29;17.83;;;13.60;;
63346;SDS011;49472;49.880;8.650;2024-01-16T02:42:55;17.33;;;15.53;;
63346;SDS011;49472;49.880;8.650;2024-01-16T02:45:20;17.53;;;15.47;;
63346;SDS011;49472;49.880;8.650;2024-01-16T02:47:45;16.10;;;14.77;;
63346;SDS011;49472;49.880;8.650;2024-01-16T02:50:11;15.50;;;14.17;;
63346;SDS011;49472;49.880;8.650;2024-01-16T02:52:38;25.80;;;16.40;;
63346;SDS011;49472;49.880;8.650;2024-01-16T02:55:03;29.33;;;14.97;;
63346;SDS011;49472;49.880;8.650;2024-01-16T02:57:29;17.20;;;15.50;;
63346;SDS011;49472;49.880;8.650;2024-01-16T02:59:55;17.00;;;15.27;;
63346;SDS011;49472;49.880;8.650;2024-01-16T03:02:20;15.90;;;14.17;;
63346;SDS011;49472;49.880;8.650;2024-01-16T03:04:47;17.03;;;15.30;;
63346;SDS011;49472;49.880;8.650;2024-01-16T03:07:12;17.47;;;15.87;;
63346;SDS011;49472;49.880;8.650;2024-01-16T03:09:37;22.30;;;15.53;;
63346;SDS011;49472;49.880;8.650;2024-01-16T03:12:02;20.70;;;15.93;;
63346;SDS011;49472;49.880;8.650;2024-01-16T03:14:28;21.20;;;16.60;;
63346;SDS011;49472;49.880;8.650;2024-01-16T03:16:58;17.60;;;14.77;;
63346;SDS011;49472;49.880;8.650;2024-01-16T03:19:23;18.30;;;15.70;;
63346;SDS011;49472;49.880;8.650;2024-01-16T03:21:49;18.67;;;15.20;;
63346;SDS011;49472;49.880;8.650;2024-01-16T03:24:14;21.60;;;16.30;;
63346;SDS011;49472;49.880;8.650;2024-01-16T03:26:39;20.73;;;16.40;;
63346;SDS011;49472;49.880;8.650;2024-01-16T03:29:05;18.70;;;16.80;;
63346;SDS011;49472;49.880;8.650;2024-01-16T03:31:31;21.37;;;16.93;;
63346;SDS011;49472;49.880;8.650;2024-01-16T03:33:56;20.23;;;15.90;;
63346;SDS011;49472;49.880;8.650;2024-01-16T03:36:21;22.37;;;16.17;;
63346;SDS011;49472;49.880;8.650;2024-01-16T03:38:47;17.63;;;15.73;;
63346;SDS011;49472;49.880;8.650;2024-01-16T03:41:12;17.57;;;15.90;;
63346;SDS011;49472;49.880;8.650;2024-01-16T03:43:37;17.23;;;15.43;;
63346;SDS011;49472;49.880;8.650;2024-01-16T03:46:02;19.97;;;16.57;;
63346;SDS011;49472;49.880;8.650;2024-01-16T03:48:28;18.37;;;16.00;;
63346;SDS011;49472;49.880;8.650;2024-01-16T03:50:53;18.53;;;16.60;;
63346;SDS011;49472;49.880;8.650;2024-01-16T03:53:21;20.00;;;16.93;;
63346;SDS011;49472;49.880;8.650;2024-01-16T03:55:47;22.80;;;17.20;;
63346;SDS011;49472;49.880;8.650;2024-01-16T03:58:13;23.00;;;16.20;;
63346;SDS011;49472;49.880;8.650;2024-01-16T04:00:38;22.73;;;17.77;;
63346;SDS011;49472;49.880;8.650;2024-01-16T04:03:04;17.10;;;15.60;;
63346;SDS011;49472;49.880;8.650;2024-01-16T04:05:29;20.53;;;15.50;;
63346;SDS011;49472;49.880;8.650;2024-01-16T04:07:54;22.90;;;17.00;;
63346;SDS011;49472;49.880;8.650;2024-01-16T04:10:19;18.27;;;16.47;;
63346;SDS011;49472;49.880;8.650;2024-01-16T04:12:44;17.47;;;15.53;;
63346;SDS011;49472;49.880;8.650;2024-01-16T04:15:10;20.13;;;17.07;;
63346;SDS011;49472;49.880;8.650;2024-01-16T04:17:35;16.60;;;14.97;;
63346;SDS011;49472;49.880;8.650;2024-01-16T04:20:00;22.97;;;17.00;;
63346;SDS011;49472;49.880;8.650;2024-01-16T04:22:26;17.50;;;14.80;;
63346;SDS011;49472;49.880;8.650;2024-01-16T04:24:52;24.03;;;17.40;;
63346;SDS011;49472;49.880;8.650;2024-01-16T04:27:17;20.07;;;16.33;;
63346;SDS011;49472;49.880;8.650;2024-01-16T04:29:43;19.40;;;16.50;;
63346;SDS011;49472;49.880;8.650;2024-01-16T04:32:08;18.90;;;16.60;;
63346;SDS011;49472;49.880;8.650;2024-01-16T04:34:33;17.03;;;15.10;;
63346;SDS011;49472;49.880;8.650;2024-01-16T04:36:59;21.60;;;16.93;;
63346;SDS011;49472;49.880;8.650;2024-01-16T04:39:25;17.60;;;15.63;;
63346;SDS011;49472;49.880;8.650;2024-01-16T04:41:50;21.87;;;16.60;;
63346;SDS011;49472;49.880;8.650;2024-01-16T04:44:15;20.00;;;17.03;;
63346;SDS011;49472;49.880;8.650;2024-01-16T04:46:40;20.43;;;15.17;;
63346;SDS011;49472;49.880;8.650;2024-01-16T04:49:05;18.03;;;15.50;;
63346;SDS011;49472;49.880;8.650;2024-01-16T04:51:31;19.63;;;16.57;;
63346;SDS011;49472;49.880;8.650;2024-01-16T04:53:56;16.37;;;14.80;;
63346;SDS011;49472;49.880;8.650;2024-01-16T04:56:22;17.73;;;15.97;;
63346;SDS011;49472;49.880;8.650;2024-01-16T04:58:47;22.73;;;16.40;;
63346;SDS011;49472;49.880;8.650;2024-01-16T05:01:12;21.53;;;16.67;;
63346;SDS011;49472;49.880;8.650;2024-01-16T05:03:38;24.83;;;17.10;;
63346;SDS011;49472;49.880;8.650;2024-01-16T05:06:03;18.63;;;17.00;;
63346;SDS011;49472;49.880;8.650;2024-01-16T05:08:28;20.23;;;17.23;;
63346;SDS011;49472;49.880;8.650;2024-01-16T05:10:55;27.73;;;18.00;;
63346;SDS011;49472;49.880;8.650;2024-01-16T05:13:20;21.13;;;16.63;;
63346;SDS011;49472;49.880;8.650;2024-01-16T05:15:45;24.97;;;17.70;;
63346;SDS011;49472;49.880;8.650;2024-01-16T05:18:11;22.43;;;16.77;;
63346;SDS011;49472;49.880;8.650;2024-01-16T05:20:36;19.47;;;17.50;;
63346;SDS011;49472;49.880;8.650;2024-01-16T05:23:01;22.10;;;18.03;;
63346;SDS011;49472;49.880;8.650;2024-01-16T05:25:27;19.20;;;16.40;;
63346;SDS011;49472;49.880;8.650;2024-01-16T05:27:52;19.53;;;17.23;;
63346;SDS011;49472;49.880;8.650;2024-01-16T05:30:17;18.30;;;16.50;;
63346;SDS011;49472;49.880;8.650;2024-01-16T05:32:42;19.97;;;17.50;;
63346;SDS011;49472;49.880;8.650;2024-01-16T05:35:07;17.53;;;15.93;;
63346;SDS011;49472;49.880;8.650;2024-01-16T05:37:34;19.80;;;17.90;;
63346;SDS011;49472;49.880;8.650;2024-01-16T05:39:59;19.00;;;17.00;;
63346;SDS011;49472;49.880;8.650;2024-01-16T05:42:25;19.80;;;17.67;;
63346;SDS011;49472;49.880;8.650;2024-01-16T05:44:50;18.20;;;16.30;;
63346;SDS011;49472;49.880;8.650;2024-01-16T05:47:16;20.43;;;18.27;;
63346;SDS011;49472;49.880;8.650;2024-01-16T05:49:41;20.23;;;17.97;;
63346;SDS011;49472;49.880;8.650;2024-01-16T05:52:07;18.60;;;16.90;;
63346;SDS011;49472;49.880;8.650;2024-01-16T05:54:33;21.53;;;17.97;;
63346;SDS011;49472;49.880;8.650;2024-01-16T05:56:58;21.57;;;16.83;;
63346;SDS011;49472;49.880;8.650;2024-01-16T05:59:23;19.90;;;17.20;;
63346;SDS011;49472;49.880;8.650;2024-01-16T06:01:48;20.37;;;18.27;;
63346;SDS011;49472;49.880;8.650;2024-01-16T06:04:14;18.53;;;16.50;;
63346;SDS011;49472;49.880;8.650;2024-01-16T06:06:40;20.43;;;18.33;;
63346;SDS011;49472;49.880;8.650;2024-01-16T06:09:09;19.80;;;16.13;;
63346;SDS011;49472;49.880;8.650;2024-01-16T06:11:37;19.00;;;17.00;;
63346;SDS011;49472;49.880;8.650;2024-01-16T06:14:03;19.37;;;17.57;;
63346;SDS011;49472;49.880;8.650;2024-01-16T06:16:28;20.10;;;18.07;;
63346;SDS011;49472;49.880;8.650;2024-01-16T06:18:54;20.17;;;18.17;;
63346;SDS011;49472;49.880;8.650;2024-01-16T06:21:19;20.90;;;18.70;;
63346;SDS011;49472;49.880;8.650;2024-01-16T06:23:44;21.50;;;17.23;;
63346;SDS011;49472;49.880;8.650;2024-01-16T06:26:10;21.03;;;17.87;;
63346;SDS011;49472;49.880;8.650;2024-01-16T06:28:35;20.13;;;17.20;;
63346;SDS011;49472;49.880;8.650;2024-01-16T06:31:01;26.53;;;17.33;;
63346;SDS011;49472;49.880;8.650;2024-01-16T06:33:26;43.37;;;18.20;;
63346;SDS011;49472;49.880;8.650;2024-01-16T06:35:51;20.53;;;17.47;;
63346;SDS011;49472;49.880;8.650;2024-01-16T06:38:19;19.10;;;17.20;;
63346;SDS011;49472;49.880;8.650;2024-01-16T06:40:44;27.13;;;17.90;;
63346;SDS011;49472;49.880;8.650;2024-01-16T06:43:11;22.70;;;18.13;;
63346;SDS011;49472;49.880;8.650;2024-01-16T06:45:39;22.30;;;18.00;;
63346;SDS011;49472;49.880;8.650;2024-01-16T06:48:04;19.83;;;17.73;;
63346;SDS011;49472;49.880;8.650;2024-01-16T06:50:30;20.87;;;17.87;;
63346;SDS011;49472;49.880;8.650;2024-01-16T06:52:55;22.57;;;18.47;;
63346;SDS011;49472;49.880;8.650;2024-01-16T06:55:20;21.93;;;16.53;;
63346;SDS011;49472;49.880;8.650;2024-01-16T06:57:45;19.37;;;17.07;;
63346;SDS011;49472;49.880;8.650;2024-01-16T07:00:11;26.33;;;16.97;;
63346;SDS011;49472;49.880;8.650;2024-01-16T07:02:37;17.40;;;15.83;;
63346;SDS011;49472;49.880;8.650;2024-01-16T07:05:02;18.50;;;16.13;;
63346;SDS011;49472;49.880;8.650;2024-01-16T07:07:28;19.40;;;17.50;;
63346;SDS011;49472;49.880;8.650;2024-01-16T07:09:54;18.87;;;16.97;;
63346;SDS011;49472;49.880;8.650;2024-01-16T07:12:20;28.23;;;18.30;;
63346;SDS011;49472;49.880;8.650;2024-01-16T07:14:45;17.90;;;16.10;;
63346;SDS011;49472;49.880;8.650;2024-01-16T07:17:10;24.43;;;17.67;;
63346;SDS011;49472;49.880;8.650;2024-01-16T07:19:35;19.23;;;17.43;;
63346;SDS011;49472;49.880;8.650;2024-01-16T07:22:00;17.23;;;15.50;;
63346;SDS011;49472;49.880;8.650;2024-01-16T07:24:25;25.13;;;18.83;;
63346;SDS011;49472;49.880;8.650;2024-01-16T07:26:51;20.27;;;15.50;;
63346;SDS011;49472;49.880;8.650;2024-01-16T07:29:16;18.20;;;16.37;;
63346;SDS011;49472;49.880;8.650;2024-01-16T07:31:41;23.50;;;17.93;;
63346;SDS011;49472;49.880;8.650;2024-01-16T07:34:06;17.97;;;16.37;;
63346;SDS011;49472;49.880;8.650;2024-01-16T07:36:31;19.43;;;17.27;;
63346;SDS011;49472;49.880;8.650;2024-01-16T07:38:57;23.43;;;17.50;;
63346;SDS011;49472;49.880;8.650;2024-01-16T07:41:22;19.30;;;17.40;;
63346;SDS011;49472;49.880;8.650;2024-01-16T07:43:47;21.80;;;16.40;;
63346;SDS011;49472;49.880;8.650;2024-01-16T07:46:13;19.83;;;17.73;;
63346;SDS011;49472;49.880;8.650;2024-01-16T07:48:38;19.47;;;17.47;;
63346;SDS011;49472;49.880;8.650;2024-01-16T07:51:03;19.40;;;16.20;;
63346;SDS011;49472;49.880;8.650;2024-01-16T07:53:29;18.60;;;16.30;;
63346;SDS011;49472;49.880;8.650;2024-01-16T07:55:54;23.43;;;20.33;;
63346;SDS011;49472;49.880;8.650;2024-01-16T07:58:19;23.83;;;18.13;;
63346;SDS011;49472;49.880;8.650;2024-01-16T08:00:45;20.80;;;17.67;;
63346;SDS011;49472;49.880;8.650;2024-01-16T08:03:10;24.70;;;18.33;;
63346;SDS011;49472;49.880;8.650;2024-01-16T08:05:36;22.97;;;17.67;;
63346;SDS011;49472;49.880;8.650;2024-01-16T08:08:02;19.47;;;17.03;;
63346;SDS011;49472;49.880;8.650;2024-01-16T08:10:28;30.17;;;19.40;;
63346;SDS011;49472;49.880;8.650;2024-01-16T08:12:53;26.43;;;18.60;;
63346;SDS011;49472;49.880;8.650;2024-01-16T08:15:18;20.20;;;18.17;;
63346;SDS011;49472;49.880;8.650;2024-01-16T08:17:43;26.10;;;17.50;;
63346;SDS011;49472;49.880;8.650;2024-01-16T08:20:08;24.10;;;18.40;;
63346;SDS011;49472;49.880;8.650;2024-01-16T08:22:38;20.60;;;17.70;;
63346;SDS011;49472;49.880;8.650;2024-01-16T08:25:03;21.40;;;18.20;;
63346;SDS011;49472;49.880;8.650;2024-01-16T08:27:31;28.00;;;20.27;;
63346;SDS011;49472;49.880;8.650;2024-01-16T08:29:57;21.40;;;18.03;;
63346;SDS011;49472;49.880;8.650;2024-01-16T08:32:22;22.10;;;19.83;;
63346;SDS011;49472;49.880;8.650;2024-01-16T08:34:48;24.43;;;18.40;;
63346;SDS011;49472;49.880;8.650;2024-01-16T08:37:13;20.00;;;17.40;;
63346;SDS011;49472;49.880;8.650;2024-01-16T08:39:38;25.40;;;18.77;;
63346;SDS011;49472;49.880;8.650;2024-01-16T08:42:04;20.63;;;17.73;;
63346;SDS011;49472;49.880;8.650;2024-01-16T08:44:29;21.30;;;18.37;;
63346;SDS011;49472;49.880;8.650;2024-01-16T08:46:54;19.60;;;17.53;;
63346;SDS011;49472;49.880;8.650;2024-01-16T08:49:19;17.73;;;15.93;;
63346;SDS011;49472;49.880;8.650;2024-01-16T08:51:45;20.83;;;17.83;;
63346;SDS011;49472;49.880;8.650;2024-01-16T08:54:10;20.00;;;17.43;;
63346;SDS011;49472;49.880;8.650;2024-01-16T08:56:35;21.03;;;18.83;;
63346;SDS011;49472;49.880;8.650;2024-01-16T08:59:00;23.20;;;17.23;;
63346;SDS011;49472;49.880;8.650;2024-01-16T09:01:25;26.47;;;17.43;;
63346;SDS011;49472;49.880;8.650;2024-01-16T09:03:51;20.50;;;17.33;;
63346;SDS011;49472;49.880;8.650;2024-01-16T09:06:16;26.67;;;17.93;;
63346;SDS011;49472;49.880;8.650;2024-01-16T09:08:42;26.37;;;17.77;;
63346;SDS011;49472;49.880;8.650;2024-01-16T09:11:09;20.43;;;17.00;;
63346;SDS011;49472;49.880;8.650;2024-01-16T09:13:36;25.00;;;19.17;;
63346;SDS011;49472;49.880;8.650;2024-01-16T09:16:01;26.60;;;17.77;;
63346;SDS011;49472;49.880;8.650;2024-01-16T09:18:26;19.30;;;17.33;;
63346;SDS011;49472;49.880;8.650;2024-01-16T09:20:52;24.70;;;18.50;;
63346;SDS011;49472;49.880;8.650;2024-01-16T09:23:17;28.03;;;18.77;;
63346;SDS011;49472;49.880;8.650;2024-01-16T09:25:42;23.23;;;18.47;;
63346;SDS011;49472;49.880;8.650;2024-01-16T09:28:07;26.03;;;17.47;;
63346;SDS011;49472;49.880;8.650;2024-01-16T09:30:33;22.40;;;18.80;;
63346;SDS011;49472;49.880;8.650;2024-01-16T09:32:58;28.33;;;18.30;;
63346;SDS011;49472;49.880;8.650;2024-01-16T09:35:23;25.70;;;18.20;;
63346;SDS011;49472;49.880;8.650;2024-01-16T09:37:49;30.97;;;17.67;;
63346;SDS011;49472;49.880;8.650;2024-01-16T09:40:14;22.73;;;17.77;;
63346;SDS011;49472;49.880;8.650;2024-01-16T09:42:39;18.90;;;16.60;;
63346;SDS011;49472;49.880;8.650;2024-01-16T09:45:06;18.53;;;16.60;;
63346;SDS011;49472;49.880;8.650;2024-01-16T09:47:32;20.00;;;17.20;;
63346;SDS011;49472;49.880;8.650;2024-01-16T09:49:57;21.53;;;17.80;;
63346;SDS011;49472;49.880;8.650;2024-01-16T09:52:24;17.93;;;16.00;;
63346;SDS011;49472;49.880;8.650;2024-01-16T09:54:49;28.03;;;18.77;;
63346;SDS011;49472;49.880;8.650;2024-01-16T09:57:14;44.77;;;26.00;;
63346;SDS011;49472;49.880;8.650;2024-01-16T09:59:40;37.93;;;22.70;;
63346;SDS011;49472;49.880;8.650;2024-01-16T10:02:06;47.33;;;26.30;;
63346;SDS011;49472;49.880;8.650;2024-01-16T10:04:32;36.93;;;19.87;;
63346;SDS011;49472;49.880;8.650;2024-01-16T10:06:58;26.43;;;19.73;;
63346;SDS011;49472;49.880;8.650;2024-01-16T10:09:23;24.57;;;18.00;;
63346;SDS011;49472;49.880;8.650;2024-01-16T10:11:48;32.20;;;19.37;;
63346;SDS011;49472;49.880;8.650;2024-01-16T10:14:15;23.93;;;18.73;;
63346;SDS011;49472;49.880;8.650;2024-01-16T10:16:56;35.13;;;22.37;;
63346;SDS011;49472;49.880;8.650;2024-01-16T10:19:28;21.07;;;16.87;;
63346;SDS011;49472;49.880;8.650;2024-01-16T10:22:00;25.37;;;18.30;;
63346;SDS011;49472;49.880;8.650;2024-01-16T10:24:25;25.63;;;19.57;;
63346;SDS011;49472;49.880;8.650;2024-01-16T10:26:57;22.10;;;17.83;;
63346;SDS011;49472;49.880;8.650;2024-01-16T10:29:23;23.53;;;18.13;;
63346;SDS011;49472;49.880;8.650;2024-01-16T10:31:48;22.40;;;19.13;;
63346;SDS011;49472;49.880;8.650;2024-01-16T10:34:20;21.67;;;19.57;;
63346;SDS011;49472;49.880;8.650;2024-01-16T10:36:50;27.77;;;19.57;;
63346;SDS011;49472;49.880;8.650;2024-01-16T10:39:15;24.00;;;17.30;;
63346;SDS011;49472;49.880;8.650;2024-01-16T10:41:40;26.07;;;23.43;;
63346;SDS011;49472;49.880;8.650;2024-01-16T10:44:06;24.13;;;20.20;;
63346;SDS011;49472;49.880;8.650;2024-01-16T10:46:32;28.63;;;21.97;;
63346;SDS011;49472;49.880;8.650;2024-01-16T10:49:01;18.87;;;16.87;;
63346;SDS011;49472;49.880;8.650;2024-01-16T10:51:33;25.90;;;20.30;;
63346;SDS011;49472;49.880;8.650;2024-01-16T10:56:23;22.83;;;20.50;;
63346;SDS011;49472;49.880;8.650;2024-01-16T10:58:51;23.23;;;19.40;;
63346;SDS011;49472;49.880;8.650;2024-01-16T11:01:21;26.03;;;21.27;;
63346;SDS011;49472;49.880;8.650;2024-01-16T11:03:47;26.50;;;18.70;;
63346;SDS011;49472;49.880;8.650;2024-01-16T11:06:16;22.67;;;18.87;;
63346;SDS011;49472;49.880;8.650;2024-01-16T11:08:41;23.03;;;18.93;;
63346;SDS011;49472;49.880;8.650;2024-01-16T11:11:07;20.60;;;18.13;;
63346;SDS011;49472;49.880;8.650;2024-01-16T11:13:33;22.50;;;17.97;;
63346;SDS011;49472;49.880;8.650;2024-01-16T11:16:04;25.03;;;20.00;;
63346;SDS011;49472;49.880;8.650;2024-01-16T11:18:30;24.87;;;18.90;;
63346;SDS011;49472;49.880;8.650;2024-01-16T11:20:56;29.07;;;18.60;;
63346;SDS011;49472;49.880;8.650;2024-01-16T11:23:24;21.90;;;19.60;;
63346;SDS011;49472;49.880;8.650;2024-01-16T11:25:49;26.17;;;19.90;;
63346;SDS011;49472;49.880;8.650;2024-01-16T11:28:14;27.83;;;20.80;;
63346;SDS011;49472;49.880;8.650;2024-01-16T11:30:40;26.23;;;19.60;;
63346;SDS011;49472;49.880;8.650;2024-01-16T11:33:06;22.10;;;20.00;;
63346;SDS011;49472;49.880;8.650;2024-01-16T11:35:33;22.10;;;19.10;;
63346;SDS011;49472;49.880;8.650;2024-01-16T11:38:08;25.20;;;19.20;;
63346;SDS011;49472;49.880;8.650;2024-01-16T11:40:34;26.13;;;19.43;;
63346;SDS011;49472;49.880;8.650;2024-01-16T11:45:48;27.37;;;19.57;;
63346;SDS011;49472;49.880;8.650;2024-01-16T11:48:14;21.83;;;18.17;;
63346;SDS011;49472;49.880;8.650;2024-01-16T11:50:40;23.33;;;19.47;;
63346;SDS011;49472;49.880;8.650;2024-01-16T11:53:06;23.00;;;18.23;;
63346;SDS011;49472;49.880;8.650;2024-01-16T12:00:40;25.40;;;19.97;;
63346;SDS011;49472;49.880;8.650;2024-01-16T12:03:07;25.43;;;19.50;;
63346;SDS011;49472;49.880;8.650;2024-01-16T12:05:33;20.30;;;18.40;;
63346;SDS011;49472;49.880;8.650;2024-01-16T12:07:58;25.83;;;20.23;;
63346;SDS011;49472;49.880;8.650;2024-01-16T12:10:23;22.23;;;18.50;;
63346;SDS011;49472;49.880;8.650;2024-01-16T12:12:49;26.97;;;18.00;;
63346;SDS011;49472;49.880;8.650;2024-01-16T12:20:18;20.93;;;18.23;;
63346;SDS011;49472;49.880;8.650;2024-01-16T12:22:43;24.37;;;20.17;;
63346;SDS011;49472;49.880;8.650;2024-01-16T12:25:08;20.47;;;18.40;;
63346;SDS011;49472;49.880;8.650;2024-01-16T12:27:34;22.50;;;18.50;;
63346;SDS011;49472;49.880;8.650;2024-01-16T12:30:07;20.30;;;18.37;;
63346;SDS011;49472;49.880;8.650;2024-01-16T12:32:32;23.23;;;18.40;;
63346;SDS011;49472;49.880;8.650;2024-01-16T12:34:57;21.10;;;19.10;;
63346;SDS011;49472;49.880;8.650;2024-01-16T12:37:22;27.50;;;20.37;;
63346;SDS011;49472;49.880;8.650;2024-01-16T12:39:48;19.20;;;17.00;;
63346;SDS011;49472;49.880;8.650;2024-01-16T12:42:13;20.70;;;18.50;;
63346;SDS011;49472;49.880;8.650;2024-01-16T12:44:39;19.97;;;18.10;;
63346;SDS011;49472;49.880;8.650;2024-01-16T12:47:04;22.80;;;20.40;;
63346;SDS011;49472;49.880;8.650;2024-01-16T12:49:30;22.17;;;19.10;;
63346;SDS011;49472;49.880;8.650;2024-01-16T12:52:14;32.33;;;19.53;;
63346;SDS011;49472;49.880;8.650;2024-01-16T12:54:39;21.10;;;18.17;;
63346;SDS011;49472;49.880;8.650;2024-01-16T12:57:05;19.10;;;17.17;;
63346;SDS011;49472;49.880;8.650;2024-01-16T12:59:31;20.80;;;18.43;;
63346;SDS011;49472;49.880;8.650;2024-01-16T13:01:56;19.70;;;17.97;;
63346;SDS011;49472;49.880;8.650;2024-01-16T13:04:21;23.27;;;18.40;;
63346;SDS011;49472;49.880;8.650;2024-01-16T13:06:46;21.63;;;17.20;;
63346;SDS011;49472;49.880;8.650;2024-01-16T13:09:13;18.93;;;16.97;;
63346;SDS011;49472;49.880;8.650;2024-01-16T13:11:49;27.03;;;16.87;;
63346;SDS011;49472;49.880;8.650;2024-01-16T13:14:15;18.20;;;15.93;;
63346;SDS011;49472;49.880;8.650;2024-01-16T13:16:40;22.17;;;19.30;;
63346;SDS011;49472;49.880;8.650;2024-01-16T13:19:05;17.60;;;15.93;;
63346;SDS011;49472;49.880;8.650;2024-01-16T13:21:35;25.10;;;17.80;;
63346;SDS011;49472;49.880;8.650;2024-01-16T13:24:01;21.23;;;19.00;;
63346;SDS011;49472;49.880;8.650;2024-01-16T13:26:27;20.00;;;17.57;;
63346;SDS011;49472;49.880;8.650;2024-01-16T13:28:52;22.63;;;18.83;;
63346;SDS011;49472;49.880;8.650;2024-01-16T13:31:18;23.77;;;19.80;;
63346;SDS011;49472;49.880;8.650;2024-01-16T13:33:43;23.40;;;20.43;;
63346;SDS011;49472;49.880;8.650;2024-01-16T13:36:09;21.47;;;19.03;;
63346;SDS011;49472;49.880;8.650;2024-01-16T13:38:34;31.23;;;23.20;;
63346;SDS011;49472;49.880;8.650;2024-01-16T13:40:59;35.60;;;22.07;;
63346;SDS011;49472;49.880;8.650;2024-01-16T13:43:24;20.60;;;18.50;;
63346;SDS011;49472;49.880;8.650;2024-01-16T13:45:50;26.97;;;20.63;;
63346;SDS011;49472;49.880;8.650;2024-01-16T13:48:15;22.60;;;20.33;;
63346;SDS011;49472;49.880;8.650;2024-01-16T13:50:41;19.30;;;16.63;;
63346;SDS011;49472;49.880;8.650;2024-01-16T13:53:06;21.63;;;19.40;;
63346;SDS011;49472;49.880;8.650;2024-01-16T13:55:32;20.27;;;18.23;;
63346;SDS011;49472;49.880;8.650;2024-01-16T13:57:57;20.70;;;18.07;;
63346;SDS011;49472;49.880;8.650;2024-01-16T14:00:23;19.00;;;17.00;;
63346;SDS011;49472;49.880;8.650;2024-01-16T14:02:48;21.27;;;17.23;;
63346;SDS011;49472;49.880;8.650;2024-01-16T14:05:17;17.30;;;15.90;;
63346;SDS011;49472;49.880;8.650;2024-01-16T14:07:43;18.33;;;16.60;;
63346;SDS011;49472;49.880;8.650;2024-01-16T14:10:09;20.67;;;18.33;;
63346;SDS011;49472;49.880;8.650;2024-01-16T14:12:37;24.20;;;19.00;;
63346;SDS011;49472;49.880;8.650;2024-01-16T14:15:02;21.90;;;19.63;;
63346;SDS011;49472;49.880;8.650;2024-01-16T14:17:34;25.83;;;18.90;;
63346;SDS011;49472;49.880;8.650;2024-01-16T14:20:00;21.97;;;19.60;;
63346;SDS011;49472;49.880;8.650;2024-01-16T14:22:25;27.40;;;23.47;;
63346;SDS011;49472;49.880;8.650;2024-01-16T14:24:51;28.70;;;19.07;;
63346;SDS011;49472;49.880;8.650;2024-01-16T14:27:17;21.47;;;18.80;;